Time;durP1;ratioP1;P1;durP2;ratioP2;P2;SDS_P1;SDS_P2;PMS_P1;PMS_P2;Temp;Humidity;BMP_temperature;BMP_pressure;BME280_temperature;BME280_humidity;BME280_pressure;Samples;Min_cycle;Max_cycle;Signal;HPM_P1;HPM_P2
2022/04/03 00:01:34;;;;;;;11.2;14.3;;;;;;;0.6;84.7;97940;;;;
2022/04/03 00:11:34;;;;;;;11.2;14.3;;;;;;;0.6;84.3;97940;;;;
2022/04/03 00:21:34;;;;;;;11.2;14.3;;;;;;;0.4;84.4;97940;;;;
2022/04/03 00:31:34;;;;;;;15.4;21;;;;;;;0.3;84.8;97930;;;;
2022/04/03 00:41:34;;;;;;;15.4;21;;;;;;;0.3;84.7;97940;;;;
2022/04/03 00:52:34;;;;;;;15.4;21;;;;;;;0.2;84.5;97940;;;;
2022/04/03 01:02:34;;;;;;;27;34.3;;;;;;;0.2;84.1;97950;;;;
2022/04/03 01:13:34;;;;;;;27;34.3;;;;;;;0.1;83.4;97940;;;;
2022/04/03 01:24:34;;;;;;;24.2;34.6;;;;;;;0.1;81.5;97950;;;;
2022/04/03 01:35:34;;;;;;;24.2;34.6;;;;;;;0;79.4;97950;;;;
2022/04/03 01:46:34;;;;;;;24.2;34.6;;;;;;;-0.1;78.6;97960;;;;
2022/04/03 01:57:34;;;;;;;12.4;19.1;;;;;;;-0.3;78.7;97970;;;;
2022/04/03 02:08:34;;;;;;;12.4;19.1;;;;;;;-0.4;77.9;97970;;;;
2022/04/03 02:18:34;;;;;;;12.4;19.1;;;;;;;-0.6;78.9;97980;;;;
2022/04/03 02:29:34;;;;;;;9.2;15.1;;;;;;;-0.8;79.5;97990;;;;
2022/04/03 02:39:34;;;;;;;9.2;15.1;;;;;;;-0.9;80.2;97990;;;;
2022/04/03 02:50:34;;;;;;;9.2;15.1;;;;;;;-1;80.2;98000;;;;
2022/04/03 03:00:35;;;;;;;11.4;17.6;;;;;;;-1.1;80;98010;;;;
2022/04/03 03:10:34;;;;;;;11.4;17.6;;;;;;;-1.2;79.5;98020;;;;
2022/04/03 03:21:34;;;;;;;11.4;17.6;;;;;;;-1.3;79.6;98030;;;;
2022/04/03 03:31:34;;;;;;;8.2;15.1;;;;;;;-1.3;79.8;98040;;;;
2022/04/03 03:42:34;;;;;;;8.2;15.1;;;;;;;-1.5;79.9;98050;;;;
2022/04/03 03:53:34;;;;;;;8.2;15.1;;;;;;;-1.7;80.3;98070;;;;
2022/04/03 04:03:34;;;;;;;7.3;14;;;;;;;-1.9;81;98080;;;;
2022/04/03 04:14:34;;;;;;;7.3;14;;;;;;;-2.1;80.9;98090;;;;
2022/04/03 04:25:34;;;;;;;7.4;15.5;;;;;;;-2.2;81.5;98100;;;;
2022/04/03 04:35:34;;;;;;;7.4;15.5;;;;;;;-2.2;82;98120;;;;
2022/04/03 04:45:34;;;;;;;7.4;15.5;;;;;;;-2;82.2;98130;;;;
2022/04/03 04:56:34;;;;;;;10.2;17.1;;;;;;;-1.8;81.9;98140;;;;
2022/04/03 05:07:34;;;;;;;10.2;17.1;;;;;;;-1.7;81.1;98150;;;;
2022/04/03 05:17:34;;;;;;;10.2;17.1;;;;;;;-1.6;80.4;98170;;;;
2022/04/03 05:27:34;;;;;;;11.2;19.3;;;;;;;-1.4;80.4;98190;;;;
2022/04/03 05:37:36;;;;;;;11.2;19.3;;;;;;;-1.2;79.6;98200;;;;
2022/04/03 05:48:34;;;;;;;11.2;19.3;;;;;;;-0.9;79;98210;;;;
2022/04/03 05:59:34;;;;;;;12.7;18.8;;;;;;;-0.6;78.1;98230;;;;
2022/04/03 06:10:34;;;;;;;12.7;18.8;;;;;;;-0.4;77.1;98240;;;;
2022/04/03 06:20:34;;;;;;;12.7;18.8;;;;;;;-0.2;76.4;98250;;;;
2022/04/03 06:31:34;;;;;;;13.6;19.3;;;;;;;0.2;74.9;98260;;;;
2022/04/03 06:41:34;;;;;;;13.6;19.3;;;;;;;0.4;73.6;98270;;;;
2022/04/03 06:52:34;;;;;;;13.6;19.3;;;;;;;1;73.1;98280;;;;
2022/04/03 07:02:34;;;;;;;12.7;17.3;;;;;;;1.1;71.6;98300;;;;
2022/04/03 07:13:34;;;;;;;12.7;17.3;;;;;;;1.6;69.1;98310;;;;
2022/04/03 07:23:34;;;;;;;12.8;15.9;;;;;;;1.9;69.3;98320;;;;
2022/04/03 07:34:34;;;;;;;12.8;15.9;;;;;;;1.9;69;98340;;;;
2022/04/03 07:44:34;;;;;;;12.8;15.9;;;;;;;2.3;68.1;98350;;;;
2022/04/03 07:55:34;;;;;;;14.6;20.4;;;;;;;1.7;67.9;98370;;;;
2022/04/03 08:05:34;;;;;;;14.6;20.4;;;;;;;1.8;67.7;98380;;;;
2022/04/03 08:16:34;;;;;;;14.6;20.4;;;;;;;1.9;65.7;98400;;;;
2022/04/03 08:26:34;;;;;;;13.4;17.8;;;;;;;2.4;64.6;98410;;;;
2022/04/03 08:37:34;;;;;;;13.4;17.8;;;;;;;3.3;65.3;98420;;;;
2022/04/03 08:48:34;;;;;;;13.4;17.8;;;;;;;3.5;60.9;98430;;;;
2022/04/03 08:59:34;;;;;;;13.8;16.5;;;;;;;4.5;59.5;98430;;;;
2022/04/03 09:09:34;;;;;;;13.8;16.5;;;;;;;4;60.7;98440;;;;
2022/04/03 09:19:34;;;;;;;13.8;16.5;;;;;;;4.7;60.5;98450;;;;
2022/04/03 09:29:34;;;;;;;11.1;14.7;;;;;;;4.9;59.7;98460;;;;
2022/04/03 09:39:34;;;;;;;11.1;14.7;;;;;;;4.5;58.6;98460;;;;
2022/04/03 09:50:34;;;;;;;11.1;14.7;;;;;;;4.5;56.9;98470;;;;
2022/04/03 10:01:34;;;;;;;8.3;12.9;;;;;;;3.8;51.1;98470;;;;
2022/04/03 10:11:34;;;;;;;8.3;12.9;;;;;;;3.7;50.5;98480;;;;
2022/04/03 10:21:36;;;;;;;8.3;12.9;;;;;;;3.9;52.2;98480;;;;
2022/04/03 10:32:34;;;;;;;4.8;8.6;;;;;;;4.1;51.1;98490;;;;
2022/04/03 10:43:34;;;;;;;4.8;8.6;;;;;;;4.7;48.9;98490;;;;
2022/04/03 10:53:34;;;;;;;3.7;6.2;;;;;;;5;49.4;98480;;;;
2022/04/03 11:04:34;;;;;;;3.7;6.2;;;;;;;5.3;49;98490;;;;
2022/04/03 11:14:34;;;;;;;3.7;6.2;;;;;;;4.9;48.7;98490;;;;
2022/04/03 11:25:34;;;;;;;4.6;7.5;;;;;;;4.7;50.3;98500;;;;
2022/04/03 11:35:34;;;;;;;4.6;7.5;;;;;;;4.3;51.5;98510;;;;
2022/04/03 11:45:34;;;;;;;4.6;7.5;;;;;;;4;51.2;98500;;;;
2022/04/03 11:56:35;;;;;;;5.9;9.6;;;;;;;4.4;50.9;98470;;;;
2022/04/03 12:06:34;;;;;;;5.9;9.6;;;;;;;4.2;54.1;98500;;;;
2022/04/03 12:17:38;;;;;;;5.9;9.6;;;;;;;3.6;55.5;98520;;;;
2022/04/03 12:27:37;;;;;;;5.4;8.2;;;;;;;3.1;58.7;98530;;;;
2022/04/03 12:38:34;;;;;;;5.4;8.2;;;;;;;3.2;55.6;98530;;;;
2022/04/03 12:48:34;;;;;;;5.4;8.2;;;;;;;3.8;55.7;98530;;;;
2022/04/03 12:58:35;;;;;;;6;9.7;;;;;;;3.9;50.6;98520;;;;
2022/04/03 13:09:34;;;;;;;6;9.7;;;;;;;4.9;51.3;98520;;;;
2022/04/03 13:19:35;;;;;;;6;9.7;;;;;;;3.2;54.9;98520;;;;
2022/04/03 13:30:34;;;;;;;5.9;10;;;;;;;2.4;58.8;98540;;;;
2022/04/03 13:40:34;;;;;;;5.9;10;;;;;;;3.5;60;98540;;;;
2022/04/03 13:51:34;;;;;;;5.9;10;;;;;;;3.6;58;98540;;;;
2022/04/03 14:02:34;;;;;;;9;13;;;;;;;4.7;52.7;98530;;;;
2022/04/03 14:12:34;;;;;;;9;13;;;;;;;5.5;47.6;98530;;;;
2022/04/03 14:23:36;;;;;;;6.2;11.1;;;;;;;4.5;54.3;98550;;;;
2022/04/03 14:33:34;;;;;;;6.2;11.1;;;;;;;3.9;58.3;98550;;;;
2022/04/03 14:44:34;;;;;;;6.2;11.1;;;;;;;3.8;54.8;98550;;;;
2022/04/03 14:54:34;;;;;;;7.1;9.4;;;;;;;3.3;55.9;98560;;;;
2022/04/03 15:04:34;;;;;;;7.1;9.4;;;;;;;4.3;52.8;98560;;;;
2022/04/03 15:14:34;;;;;;;7.1;9.4;;;;;;;3.5;56.7;98580;;;;
2022/04/03 15:25:34;;;;;;;8.4;11.9;;;;;;;2.6;57;98580;;;;
2022/04/03 15:35:34;;;;;;;8.4;11.9;;;;;;;2.3;56.1;98590;;;;
2022/04/03 15:45:34;;;;;;;8.4;11.9;;;;;;;2.4;56.4;98590;;;;
2022/04/03 15:56:34;;;;;;;5.5;9.5;;;;;;;4.6;51.7;98590;;;;
2022/04/03 16:07:35;;;;;;;5.5;9.5;;;;;;;5;50.3;98600;;;;
2022/04/03 16:18:35;;;;;;;5.5;9.5;;;;;;;3.5;50;98620;;;;
2022/04/03 16:29:36;;;;;;;7.5;10.1;;;;;;;2;55.7;98630;;;;
2022/04/03 16:39:35;;;;;;;7.5;10.1;;;;;;;1.4;58.4;98630;;;;
2022/04/03 16:50:34;;;;;;;7.5;10.1;;;;;;;1.1;59.6;98640;;;;
2022/04/03 17:01:34;;;;;;;8.4;12.3;;;;;;;0.8;61.7;98650;;;;
2022/04/03 17:12:34;;;;;;;8.4;12.3;;;;;;;0.4;63;98660;;;;
2022/04/03 17:22:34;;;;;;;9.7;14.8;;;;;;;0.2;63.9;98660;;;;
2022/04/03 17:32:34;;;;;;;9.7;14.8;;;;;;;0.2;63.4;98670;;;;
2022/04/03 17:42:34;;;;;;;9.7;14.8;;;;;;;0.1;64.5;98690;;;;
2022/04/03 17:53:34;;;;;;;11.8;20.5;;;;;;;-0.1;65.1;98710;;;;
2022/04/03 18:03:34;;;;;;;11.8;20.5;;;;;;;-0.1;65.5;98730;;;;
2022/04/03 18:14:34;;;;;;;11.8;20.5;;;;;;;-0.1;66;98730;;;;
2022/04/03 18:24:36;;;;;;;15.1;22.4;;;;;;;-0.2;65.9;98740;;;;
2022/04/03 18:34:34;;;;;;;15.1;22.4;;;;;;;-0.2;66.7;98750;;;;
2022/04/03 18:44:34;;;;;;;15.1;22.4;;;;;;;-0.2;66.9;98770;;;;
2022/04/03 18:55:37;;;;;;;15.1;20.5;;;;;;;-0.2;66.3;98770;;;;
2022/04/03 19:05:34;;;;;;;15.1;20.5;;;;;;;-0.1;67;98770;;;;
2022/04/03 19:15:34;;;;;;;15.1;20.5;;;;;;;-0.1;67.8;98770;;;;
2022/04/03 19:25:34;;;;;;;13.7;19.2;;;;;;;-0.1;68.3;98780;;;;
2022/04/03 19:36:34;;;;;;;13.7;19.2;;;;;;;-0.1;68.4;98780;;;;
2022/04/03 19:46:35;;;;;;;13.7;19.2;;;;;;;-0.1;68.4;98780;;;;
2022/04/03 19:57:34;;;;;;;14;20.1;;;;;;;-0.1;68.1;98790;;;;
2022/04/03 20:08:34;;;;;;;14;20.1;;;;;;;-0.2;68;98790;;;;
2022/04/03 20:19:34;;;;;;;14;20.1;;;;;;;-0.2;68.5;98790;;;;
2022/04/03 20:30:34;;;;;;;16.1;25.7;;;;;;;-0.3;69.3;98800;;;;
2022/04/03 20:40:34;;;;;;;16.1;25.7;;;;;;;-0.3;69.6;98800;;;;
2022/04/03 20:50:34;;;;;;;20.4;24.5;;;;;;;-0.3;69.3;98800;;;;
2022/04/03 21:01:34;;;;;;;20.4;24.5;;;;;;;-0.4;69.2;98800;;;;
2022/04/03 21:11:34;;;;;;;20.4;24.5;;;;;;;-0.4;69.2;98800;;;;
2022/04/03 21:21:34;;;;;;;15.6;20.4;;;;;;;-0.5;69.9;98800;;;;
2022/04/03 21:32:34;;;;;;;15.6;20.4;;;;;;;-0.4;69.4;98810;;;;
2022/04/03 21:43:34;;;;;;;15.6;20.4;;;;;;;-0.4;69.5;98810;;;;
2022/04/03 21:53:34;;;;;;;14.1;20.8;;;;;;;-0.5;69.7;98810;;;;
2022/04/03 22:04:34;;;;;;;14.1;20.8;;;;;;;-0.4;69.2;98810;;;;
2022/04/03 22:14:34;;;;;;;14.1;20.8;;;;;;;-0.4;68.9;98810;;;;
2022/04/03 22:25:34;;;;;;;13.4;21.3;;;;;;;-0.4;68.8;98810;;;;
2022/04/03 22:36:34;;;;;;;13.4;21.3;;;;;;;-0.4;69;98800;;;;
2022/04/03 22:47:35;;;;;;;13.4;21.3;;;;;;;-0.4;68.8;98800;;;;
2022/04/03 22:58:35;;;;;;;12.4;17.1;;;;;;;-0.4;68.9;98800;;;;
2022/04/03 23:08:34;;;;;;;12.4;17.1;;;;;;;-0.5;69.8;98790;;;;
2022/04/03 23:18:34;;;;;;;12.4;17.1;;;;;;;-0.6;70.2;98800;;;;
2022/04/03 23:29:34;;;;;;;11.9;17.9;;;;;;;-0.6;69.7;98780;;;;
2022/04/03 23:39:35;;;;;;;11.9;17.9;;;;;;;-0.6;70.2;98780;;;;
2022/04/03 23:50:34;;;;;;;12;16.8;;;;;;;-0.6;70.5;98790;;;;
